sensor_id;sensor_type;location;lat;lon;timestamp;P1;durP1;ratioP1;P2;durP2;ratioP2
18360;SDS011;9308;48.550;9.108;2023-02-01T00:01:44;5.90;;;5.47;;
18360;SDS011;9308;48.550;9.108;2023-02-01T00:04:10;5.70;;;5.10;;
18360;SDS011;9308;48.550;9.108;2023-02-01T00:06:37;7.70;;;5.93;;
18360;SDS011;9308;48.550;9.108;2023-02-01T00:09:02;5.67;;;4.80;;
18360;SDS011;9308;48.550;9.108;2023-02-01T00:11:28;9.90;;;5.50;;
18360;SDS011;9308;48.550;9.108;2023-02-01T00:13:54;7.80;;;5.00;;
18360;SDS011;9308;48.550;9.108;2023-02-01T00:16:21;6.63;;;4.90;;
18360;SDS011;9308;48.550;9.108;2023-02-01T00:18:49;5.37;;;4.90;;
18360;SDS011;9308;48.550;9.108;2023-02-01T00:21:17;5.70;;;5.20;;
18360;SDS011;9308;48.550;9.108;2023-02-01T00:23:44;5.60;;;5.10;;
18360;SDS011;9308;48.550;9.108;2023-02-01T00:26:18;5.10;;;4.70;;
18360;SDS011;9308;48.550;9.108;2023-02-01T00:28:48;5.77;;;5.23;;
18360;SDS011;9308;48.550;9.108;2023-02-01T00:31:14;4.77;;;4.23;;
18360;SDS011;9308;48.550;9.108;2023-02-01T00:33:40;5.80;;;5.20;;
18360;SDS011;9308;48.550;9.108;2023-02-01T00:36:06;5.03;;;4.50;;
18360;SDS011;9308;48.550;9.108;2023-02-01T00:38:33;5.63;;;5.00;;
18360;SDS011;9308;48.550;9.108;2023-02-01T00:41:04;5.43;;;4.90;;
18360;SDS011;9308;48.550;9.108;2023-02-01T00:43:35;4.77;;;4.37;;
18360;SDS011;9308;48.550;9.108;2023-02-01T00:46:01;5.20;;;4.70;;
18360;SDS011;9308;48.550;9.108;2023-02-01T00:48:27;5.47;;;4.90;;
18360;SDS011;9308;48.550;9.108;2023-02-01T00:50:53;5.23;;;4.83;;
18360;SDS011;9308;48.550;9.108;2023-02-01T00:53:18;5.67;;;4.60;;
18360;SDS011;9308;48.550;9.108;2023-02-01T00:55:47;4.70;;;4.30;;
18360;SDS011;9308;48.550;9.108;2023-02-01T00:58:13;4.40;;;4.10;;
18360;SDS011;9308;48.550;9.108;2023-02-01T01:00:38;4.50;;;4.10;;
18360;SDS011;9308;48.550;9.108;2023-02-01T01:03:04;4.70;;;4.30;;
18360;SDS011;9308;48.550;9.108;2023-02-01T01:05:43;4.53;;;4.13;;
18360;SDS011;9308;48.550;9.108;2023-02-01T01:08:13;6.77;;;4.63;;
18360;SDS011;9308;48.550;9.108;2023-02-01T01:10:40;3.70;;;3.50;;
18360;SDS011;9308;48.550;9.108;2023-02-01T01:13:06;4.93;;;4.40;;
18360;SDS011;9308;48.550;9.108;2023-02-01T01:15:36;4.40;;;4.00;;
18360;SDS011;9308;48.550;9.108;2023-02-01T01:18:02;4.30;;;4.00;;
18360;SDS011;9308;48.550;9.108;2023-02-01T01:20:28;4.73;;;4.33;;
18360;SDS011;9308;48.550;9.108;2023-02-01T01:22:54;4.13;;;3.73;;
18360;SDS011;9308;48.550;9.108;2023-02-01T01:25:19;4.10;;;3.80;;
18360;SDS011;9308;48.550;9.108;2023-02-01T01:27:46;3.70;;;3.40;;
18360;SDS011;9308;48.550;9.108;2023-02-01T01:30:11;4.00;;;3.70;;
18360;SDS011;9308;48.550;9.108;2023-02-01T01:32:37;3.97;;;3.67;;
18360;SDS011;9308;48.550;9.108;2023-02-01T01:35:02;4.03;;;3.40;;
18360;SDS011;9308;48.550;9.108;2023-02-01T01:37:28;3.50;;;3.30;;
18360;SDS011;9308;48.550;9.108;2023-02-01T01:39:53;3.27;;;3.07;;
18360;SDS011;9308;48.550;9.108;2023-02-01T01:42:21;4.00;;;3.60;;
18360;SDS011;9308;48.550;9.108;2023-02-01T01:45:06;3.70;;;3.30;;
18360;SDS011;9308;48.550;9.108;2023-02-01T01:47:47;3.20;;;2.90;;
18360;SDS011;9308;48.550;9.108;2023-02-01T01:50:16;3.63;;;3.33;;
18360;SDS011;9308;48.550;9.108;2023-02-01T01:52:49;3.23;;;2.90;;
18360;SDS011;9308;48.550;9.108;2023-02-01T01:55:17;3.43;;;3.20;;
18360;SDS011;9308;48.550;9.108;2023-02-01T01:57:46;3.83;;;3.33;;
18360;SDS011;9308;48.550;9.108;2023-02-01T02:00:18;3.27;;;3.03;;
18360;SDS011;9308;48.550;9.108;2023-02-01T02:02:47;3.80;;;3.40;;
18360;SDS011;9308;48.550;9.108;2023-02-01T02:05:16;3.60;;;3.40;;
18360;SDS011;9308;48.550;9.108;2023-02-01T02:07:43;3.13;;;2.93;;
18360;SDS011;9308;48.550;9.108;2023-02-01T02:10:13;3.83;;;3.57;;
18360;SDS011;9308;48.550;9.108;2023-02-01T02:12:40;3.50;;;3.20;;
18360;SDS011;9308;48.550;9.108;2023-02-01T02:15:09;3.33;;;3.03;;
18360;SDS011;9308;48.550;9.108;2023-02-01T02:23:12;4.17;;;3.87;;
18360;SDS011;9308;48.550;9.108;2023-02-01T02:26:02;3.87;;;3.57;;
18360;SDS011;9308;48.550;9.108;2023-02-01T02:39:50;4.00;;;3.50;;
18360;SDS011;9308;48.550;9.108;2023-02-01T02:42:35;3.60;;;3.40;;
18360;SDS011;9308;48.550;9.108;2023-02-01T02:45:24;3.90;;;3.57;;
18360;SDS011;9308;48.550;9.108;2023-02-01T02:48:17;2.97;;;2.77;;
18360;SDS011;9308;48.550;9.108;2023-02-01T02:51:04;4.00;;;3.70;;
18360;SDS011;9308;48.550;9.108;2023-02-01T02:54:15;4.20;;;3.90;;
18360;SDS011;9308;48.550;9.108;2023-02-01T02:56:59;4.33;;;3.93;;
18360;SDS011;9308;48.550;9.108;2023-02-01T02:59:49;4.10;;;3.80;;
18360;SDS011;9308;48.550;9.108;2023-02-01T03:02:34;4.23;;;3.87;;
18360;SDS011;9308;48.550;9.108;2023-02-01T03:05:19;3.90;;;3.60;;
18360;SDS011;9308;48.550;9.108;2023-02-01T03:07:48;4.30;;;4.00;;
18360;SDS011;9308;48.550;9.108;2023-02-01T03:10:30;4.23;;;3.80;;
18360;SDS011;9308;48.550;9.108;2023-02-01T03:13:08;4.30;;;3.90;;
18360;SDS011;9308;48.550;9.108;2023-02-01T03:21:44;4.73;;;4.37;;
18360;SDS011;9308;48.550;9.108;2023-02-01T03:24:15;4.23;;;3.93;;
18360;SDS011;9308;48.550;9.108;2023-02-01T03:27:01;4.27;;;3.97;;
18360;SDS011;9308;48.550;9.108;2023-02-01T03:29:32;4.13;;;3.80;;
18360;SDS011;9308;48.550;9.108;2023-02-01T03:32:05;4.93;;;4.53;;
18360;SDS011;9308;48.550;9.108;2023-02-01T03:34:30;4.00;;;3.70;;
18360;SDS011;9308;48.550;9.108;2023-02-01T03:37:00;5.47;;;4.33;;
18360;SDS011;9308;48.550;9.108;2023-02-01T03:41:58;4.70;;;3.43;;
18360;SDS011;9308;48.550;9.108;2023-02-01T03:44:47;3.67;;;3.40;;
18360;SDS011;9308;48.550;9.108;2023-02-01T03:47:20;4.00;;;3.70;;
18360;SDS011;9308;48.550;9.108;2023-02-01T03:49:49;4.10;;;3.80;;
18360;SDS011;9308;48.550;9.108;2023-02-01T03:52:28;4.27;;;3.87;;
18360;SDS011;9308;48.550;9.108;2023-02-01T03:54:57;4.03;;;3.43;;
18360;SDS011;9308;48.550;9.108;2023-02-01T03:57:26;4.33;;;3.93;;
18360;SDS011;9308;48.550;9.108;2023-02-01T03:59:54;4.60;;;4.20;;
18360;SDS011;9308;48.550;9.108;2023-02-01T04:02:30;4.30;;;3.90;;
18360;SDS011;9308;48.550;9.108;2023-02-01T04:04:55;4.20;;;3.90;;
18360;SDS011;9308;48.550;9.108;2023-02-01T04:07:21;9.57;;;4.60;;
18360;SDS011;9308;48.550;9.108;2023-02-01T04:09:46;3.90;;;3.60;;
18360;SDS011;9308;48.550;9.108;2023-02-01T04:12:12;3.97;;;3.63;;
18360;SDS011;9308;48.550;9.108;2023-02-01T04:14:37;4.60;;;4.20;;
18360;SDS011;9308;48.550;9.108;2023-02-01T04:17:02;4.10;;;3.80;;
18360;SDS011;9308;48.550;9.108;2023-02-01T04:19:28;4.87;;;4.23;;
18360;SDS011;9308;48.550;9.108;2023-02-01T04:21:53;3.83;;;3.53;;
18360;SDS011;9308;48.550;9.108;2023-02-01T04:24:19;4.37;;;4.07;;
18360;SDS011;9308;48.550;9.108;2023-02-01T04:26:44;4.70;;;4.40;;
18360;SDS011;9308;48.550;9.108;2023-02-01T04:29:09;4.10;;;3.70;;
18360;SDS011;9308;48.550;9.108;2023-02-01T04:31:35;5.03;;;4.53;;
18360;SDS011;9308;48.550;9.108;2023-02-01T04:34:02;4.37;;;4.07;;
18360;SDS011;9308;48.550;9.108;2023-02-01T04:36:27;3.90;;;3.60;;
18360;SDS011;9308;48.550;9.108;2023-02-01T04:38:53;4.50;;;4.10;;
18360;SDS011;9308;48.550;9.108;2023-02-01T04:41:19;4.07;;;3.77;;
18360;SDS011;9308;48.550;9.108;2023-02-01T04:43:45;5.27;;;3.83;;
18360;SDS011;9308;48.550;9.108;2023-02-01T04:46:11;3.80;;;3.50;;
18360;SDS011;9308;48.550;9.108;2023-02-01T04:48:37;4.53;;;4.13;;
18360;SDS011;9308;48.550;9.108;2023-02-01T04:51:02;4.70;;;4.30;;
18360;SDS011;9308;48.550;9.108;2023-02-01T04:53:28;4.77;;;4.37;;
18360;SDS011;9308;48.550;9.108;2023-02-01T04:55:54;5.00;;;4.60;;
18360;SDS011;9308;48.550;9.108;2023-02-01T04:58:20;4.60;;;4.20;;
18360;SDS011;9308;48.550;9.108;2023-02-01T05:00:45;3.97;;;3.67;;
18360;SDS011;9308;48.550;9.108;2023-02-01T05:03:10;4.20;;;3.90;;
18360;SDS011;9308;48.550;9.108;2023-02-01T05:05:36;4.37;;;3.97;;
18360;SDS011;9308;48.550;9.108;2023-02-01T05:08:01;4.50;;;4.07;;
18360;SDS011;9308;48.550;9.108;2023-02-01T05:10:27;4.80;;;4.40;;
18360;SDS011;9308;48.550;9.108;2023-02-01T05:12:52;4.57;;;4.17;;
18360;SDS011;9308;48.550;9.108;2023-02-01T05:15:37;4.60;;;4.30;;
18360;SDS011;9308;48.550;9.108;2023-02-01T05:18:02;4.60;;;4.07;;
18360;SDS011;9308;48.550;9.108;2023-02-01T05:20:28;4.27;;;3.87;;
18360;SDS011;9308;48.550;9.108;2023-02-01T05:22:53;3.63;;;3.33;;
18360;SDS011;9308;48.550;9.108;2023-02-01T05:25:18;3.90;;;3.60;;
18360;SDS011;9308;48.550;9.108;2023-02-01T05:27:44;3.60;;;3.30;;
18360;SDS011;9308;48.550;9.108;2023-02-01T05:30:09;3.90;;;3.63;;
18360;SDS011;9308;48.550;9.108;2023-02-01T05:32:35;4.00;;;3.70;;
18360;SDS011;9308;48.550;9.108;2023-02-01T05:35:01;4.07;;;3.77;;
18360;SDS011;9308;48.550;9.108;2023-02-01T05:37:26;3.80;;;3.50;;
18360;SDS011;9308;48.550;9.108;2023-02-01T05:39:52;3.33;;;3.03;;
18360;SDS011;9308;48.550;9.108;2023-02-01T05:42:17;3.97;;;3.67;;
18360;SDS011;9308;48.550;9.108;2023-02-01T05:44:43;4.03;;;3.73;;
18360;SDS011;9308;48.550;9.108;2023-02-01T05:47:09;4.37;;;3.97;;
18360;SDS011;9308;48.550;9.108;2023-02-01T05:49:34;3.00;;;2.80;;
18360;SDS011;9308;48.550;9.108;2023-02-01T05:52:00;4.17;;;3.57;;
18360;SDS011;9308;48.550;9.108;2023-02-01T05:54:26;3.60;;;3.30;;
18360;SDS011;9308;48.550;9.108;2023-02-01T05:56:52;3.97;;;3.67;;
18360;SDS011;9308;48.550;9.108;2023-02-01T05:59:17;3.50;;;3.30;;
18360;SDS011;9308;48.550;9.108;2023-02-01T06:01:42;3.23;;;3.03;;
18360;SDS011;9308;48.550;9.108;2023-02-01T06:04:08;3.37;;;3.07;;
18360;SDS011;9308;48.550;9.108;2023-02-01T06:06:34;3.60;;;3.30;;
18360;SDS011;9308;48.550;9.108;2023-02-01T06:09:02;3.20;;;3.00;;
18360;SDS011;9308;48.550;9.108;2023-02-01T06:11:28;3.33;;;3.10;;
18360;SDS011;9308;48.550;9.108;2023-02-01T06:13:54;4.00;;;3.10;;
18360;SDS011;9308;48.550;9.108;2023-02-01T06:16:20;2.77;;;2.57;;
18360;SDS011;9308;48.550;9.108;2023-02-01T06:18:46;3.50;;;3.30;;
18360;SDS011;9308;48.550;9.108;2023-02-01T06:21:12;3.67;;;3.37;;
18360;SDS011;9308;48.550;9.108;2023-02-01T06:23:39;4.63;;;3.30;;
18360;SDS011;9308;48.550;9.108;2023-02-01T06:26:05;3.77;;;2.97;;
18360;SDS011;9308;48.550;9.108;2023-02-01T06:28:34;3.37;;;2.87;;
18360;SDS011;9308;48.550;9.108;2023-02-01T06:31:03;3.17;;;2.97;;
18360;SDS011;9308;48.550;9.108;2023-02-01T06:33:32;3.40;;;2.90;;
18360;SDS011;9308;48.550;9.108;2023-02-01T06:35:59;3.50;;;3.20;;
18360;SDS011;9308;48.550;9.108;2023-02-01T06:38:26;4.50;;;3.37;;
18360;SDS011;9308;48.550;9.108;2023-02-01T06:40:55;3.20;;;3.00;;
18360;SDS011;9308;48.550;9.108;2023-02-01T06:43:22;4.23;;;3.53;;
18360;SDS011;9308;48.550;9.108;2023-02-01T06:45:48;4.20;;;3.80;;
18360;SDS011;9308;48.550;9.108;2023-02-01T06:48:14;3.60;;;3.30;;
18360;SDS011;9308;48.550;9.108;2023-02-01T06:50:39;3.80;;;3.50;;
18360;SDS011;9308;48.550;9.108;2023-02-01T06:53:04;4.13;;;3.83;;
18360;SDS011;9308;48.550;9.108;2023-02-01T06:55:30;4.40;;;3.93;;
18360;SDS011;9308;48.550;9.108;2023-02-01T06:57:55;4.20;;;3.87;;
18360;SDS011;9308;48.550;9.108;2023-02-01T07:00:21;5.00;;;4.60;;
18360;SDS011;9308;48.550;9.108;2023-02-01T07:02:48;4.13;;;3.83;;
18360;SDS011;9308;48.550;9.108;2023-02-01T07:05:14;4.77;;;4.10;;
18360;SDS011;9308;48.550;9.108;2023-02-01T07:07:39;3.97;;;3.67;;
18360;SDS011;9308;48.550;9.108;2023-02-01T07:10:05;5.50;;;4.20;;
18360;SDS011;9308;48.550;9.108;2023-02-01T07:12:31;5.07;;;4.30;;
18360;SDS011;9308;48.550;9.108;2023-02-01T07:14:56;5.40;;;4.33;;
18360;SDS011;9308;48.550;9.108;2023-02-01T07:17:22;3.70;;;3.50;;
18360;SDS011;9308;48.550;9.108;2023-02-01T07:19:48;4.27;;;3.90;;
18360;SDS011;9308;48.550;9.108;2023-02-01T07:22:15;4.30;;;3.60;;
18360;SDS011;9308;48.550;9.108;2023-02-01T07:24:41;4.83;;;4.40;;
18360;SDS011;9308;48.550;9.108;2023-02-01T07:27:07;4.13;;;3.83;;
18360;SDS011;9308;48.550;9.108;2023-02-01T07:29:32;4.90;;;4.50;;
18360;SDS011;9308;48.550;9.108;2023-02-01T07:31:58;4.00;;;3.70;;
18360;SDS011;9308;48.550;9.108;2023-02-01T07:34:23;4.30;;;4.00;;
18360;SDS011;9308;48.550;9.108;2023-02-01T07:36:49;4.77;;;3.70;;
18360;SDS011;9308;48.550;9.108;2023-02-01T07:39:14;4.27;;;3.87;;
18360;SDS011;9308;48.550;9.108;2023-02-01T07:41:39;3.90;;;3.53;;
18360;SDS011;9308;48.550;9.108;2023-02-01T07:44:05;4.07;;;3.67;;
18360;SDS011;9308;48.550;9.108;2023-02-01T07:46:30;4.20;;;3.80;;
18360;SDS011;9308;48.550;9.108;2023-02-01T07:48:56;4.17;;;3.87;;
18360;SDS011;9308;48.550;9.108;2023-02-01T07:51:21;3.97;;;3.77;;
18360;SDS011;9308;48.550;9.108;2023-02-01T07:53:47;4.20;;;3.90;;
18360;SDS011;9308;48.550;9.108;2023-02-01T07:56:16;4.40;;;4.00;;
18360;SDS011;9308;48.550;9.108;2023-02-01T07:58:47;4.80;;;4.40;;
18360;SDS011;9308;48.550;9.108;2023-02-01T08:01:17;3.90;;;3.50;;
18360;SDS011;9308;48.550;9.108;2023-02-01T08:03:50;4.33;;;4.03;;
18360;SDS011;9308;48.550;9.108;2023-02-01T08:06:18;4.10;;;3.67;;
18360;SDS011;9308;48.550;9.108;2023-02-01T08:08:45;4.30;;;4.00;;
18360;SDS011;9308;48.550;9.108;2023-02-01T08:11:12;3.93;;;3.63;;
18360;SDS011;9308;48.550;9.108;2023-02-01T08:13:38;4.13;;;3.73;;
18360;SDS011;9308;48.550;9.108;2023-02-01T08:16:05;3.80;;;3.50;;
18360;SDS011;9308;48.550;9.108;2023-02-01T08:18:32;4.00;;;3.70;;
18360;SDS011;9308;48.550;9.108;2023-02-01T08:21:03;3.73;;;3.40;;
18360;SDS011;9308;48.550;9.108;2023-02-01T08:23:29;3.50;;;3.20;;
18360;SDS011;9308;48.550;9.108;2023-02-01T08:26:03;3.90;;;3.60;;
18360;SDS011;9308;48.550;9.108;2023-02-01T08:28:34;4.17;;;3.87;;
18360;SDS011;9308;48.550;9.108;2023-02-01T08:31:03;3.90;;;3.50;;
18360;SDS011;9308;48.550;9.108;2023-02-01T08:33:34;6.40;;;4.27;;
18360;SDS011;9308;48.550;9.108;2023-02-01T08:36:01;4.13;;;3.83;;
18360;SDS011;9308;48.550;9.108;2023-02-01T08:38:27;3.87;;;3.57;;
18360;SDS011;9308;48.550;9.108;2023-02-01T08:40:53;3.83;;;3.53;;
18360;SDS011;9308;48.550;9.108;2023-02-01T08:43:18;3.07;;;2.87;;
18360;SDS011;9308;48.550;9.108;2023-02-01T08:45:44;3.47;;;3.17;;
18360;SDS011;9308;48.550;9.108;2023-02-01T08:48:09;3.70;;;3.50;;
18360;SDS011;9308;48.550;9.108;2023-02-01T08:50:35;3.20;;;3.00;;
18360;SDS011;9308;48.550;9.108;2023-02-01T08:53:00;3.20;;;3.00;;
18360;SDS011;9308;48.550;9.108;2023-02-01T08:55:25;3.30;;;3.00;;
18360;SDS011;9308;48.550;9.108;2023-02-01T08:57:51;3.83;;;3.43;;
18360;SDS011;9308;48.550;9.108;2023-02-01T09:00:17;3.10;;;2.83;;
18360;SDS011;9308;48.550;9.108;2023-02-01T09:02:43;3.97;;;3.67;;
18360;SDS011;9308;48.550;9.108;2023-02-01T09:05:09;3.30;;;3.10;;
18360;SDS011;9308;48.550;9.108;2023-02-01T09:07:36;4.10;;;3.70;;
18360;SDS011;9308;48.550;9.108;2023-02-01T09:10:02;3.27;;;3.07;;
18360;SDS011;9308;48.550;9.108;2023-02-01T09:12:29;4.40;;;3.73;;
18360;SDS011;9308;48.550;9.108;2023-02-01T09:14:56;3.57;;;3.27;;
18360;SDS011;9308;48.550;9.108;2023-02-01T09:17:22;3.63;;;3.33;;
18360;SDS011;9308;48.550;9.108;2023-02-01T09:19:47;3.53;;;3.20;;
18360;SDS011;9308;48.550;9.108;2023-02-01T09:22:14;4.13;;;3.73;;
18360;SDS011;9308;48.550;9.108;2023-02-01T09:24:41;3.97;;;3.67;;
18360;SDS011;9308;48.550;9.108;2023-02-01T09:27:06;4.53;;;4.20;;
18360;SDS011;9308;48.550;9.108;2023-02-01T09:29:32;4.73;;;3.20;;
18360;SDS011;9308;48.550;9.108;2023-02-01T09:31:57;3.57;;;3.30;;
18360;SDS011;9308;48.550;9.108;2023-02-01T09:34:23;3.93;;;3.50;;
18360;SDS011;9308;48.550;9.108;2023-02-01T09:36:49;4.47;;;3.33;;
18360;SDS011;9308;48.550;9.108;2023-02-01T09:39:14;4.00;;;3.70;;
18360;SDS011;9308;48.550;9.108;2023-02-01T09:44:33;4.40;;;3.27;;
18360;SDS011;9308;48.550;9.108;2023-02-01T09:47:00;4.23;;;3.83;;
18360;SDS011;9308;48.550;9.108;2023-02-01T09:49:28;4.20;;;3.80;;
18360;SDS011;9308;48.550;9.108;2023-02-01T09:51:56;4.90;;;3.87;;
18360;SDS011;9308;48.550;9.108;2023-02-01T09:54:25;8.80;;;3.50;;
18360;SDS011;9308;48.550;9.108;2023-02-01T09:56:53;4.37;;;3.53;;
18360;SDS011;9308;48.550;9.108;2023-02-01T09:59:39;4.70;;;4.20;;
18360;SDS011;9308;48.550;9.108;2023-02-01T10:02:12;7.53;;;3.57;;
18360;SDS011;9308;48.550;9.108;2023-02-01T10:04:42;4.90;;;3.90;;
18360;SDS011;9308;48.550;9.108;2023-02-01T10:13:01;8.37;;;4.10;;
18360;SDS011;9308;48.550;9.108;2023-02-01T10:18:27;5.63;;;4.40;;
18360;SDS011;9308;48.550;9.108;2023-02-01T10:28:44;7.40;;;4.20;;
18360;SDS011;9308;48.550;9.108;2023-02-01T10:31:14;10.30;;;3.70;;
18360;SDS011;9308;48.550;9.108;2023-02-01T10:33:47;7.03;;;4.20;;
18360;SDS011;9308;48.550;9.108;2023-02-01T10:36:28;7.67;;;4.53;;
18360;SDS011;9308;48.550;9.108;2023-02-01T10:38:57;6.57;;;4.20;;
18360;SDS011;9308;48.550;9.108;2023-02-01T10:41:24;4.03;;;3.73;;
18360;SDS011;9308;48.550;9.108;2023-02-01T10:43:58;5.17;;;4.47;;
18360;SDS011;9308;48.550;9.108;2023-02-01T10:46:26;7.07;;;3.23;;
18360;SDS011;9308;48.550;9.108;2023-02-01T10:48:52;4.37;;;3.27;;
18360;SDS011;9308;48.550;9.108;2023-02-01T10:52:05;8.40;;;4.37;;
18360;SDS011;9308;48.550;9.108;2023-02-01T10:54:21;4.40;;;3.80;;
18360;SDS011;9308;48.550;9.108;2023-02-01T10:56:56;8.17;;;4.63;;
18360;SDS011;9308;48.550;9.108;2023-02-01T10:59:25;5.50;;;3.80;;
18360;SDS011;9308;48.550;9.108;2023-02-01T11:02:00;6.13;;;5.23;;
18360;SDS011;9308;48.550;9.108;2023-02-01T11:04:38;9.33;;;3.57;;
18360;SDS011;9308;48.550;9.108;2023-02-01T11:07:12;6.60;;;3.77;;
18360;SDS011;9308;48.550;9.108;2023-02-01T11:09:44;4.27;;;3.80;;
18360;SDS011;9308;48.550;9.108;2023-02-01T11:14:56;6.33;;;3.40;;
18360;SDS011;9308;48.550;9.108;2023-02-01T11:17:26;5.10;;;4.00;;
18360;SDS011;9308;48.550;9.108;2023-02-01T11:20:00;6.27;;;3.63;;
18360;SDS011;9308;48.550;9.108;2023-02-01T11:22:32;8.00;;;3.77;;
18360;SDS011;9308;48.550;9.108;2023-02-01T11:24:57;7.47;;;5.20;;
18360;SDS011;9308;48.550;9.108;2023-02-01T11:27:26;6.43;;;3.90;;
18360;SDS011;9308;48.550;9.108;2023-02-01T11:29:53;5.53;;;3.97;;
18360;SDS011;9308;48.550;9.108;2023-02-01T11:32:24;7.80;;;4.40;;
18360;SDS011;9308;48.550;9.108;2023-02-01T11:34:59;9.47;;;3.87;;
18360;SDS011;9308;48.550;9.108;2023-02-01T11:37:31;5.83;;;4.37;;
18360;SDS011;9308;48.550;9.108;2023-02-01T11:40:03;5.43;;;4.40;;
18360;SDS011;9308;48.550;9.108;2023-02-01T11:42:53;4.97;;;3.77;;
18360;SDS011;9308;48.550;9.108;2023-02-01T11:45:27;6.90;;;3.97;;
18360;SDS011;9308;48.550;9.108;2023-02-01T11:47:54;7.47;;;3.57;;
18360;SDS011;9308;48.550;9.108;2023-02-01T11:50:28;9.63;;;4.03;;
18360;SDS011;9308;48.550;9.108;2023-02-01T12:01:40;6.03;;;4.70;;
18360;SDS011;9308;48.550;9.108;2023-02-01T12:27:05;3.37;;;3.07;;
18360;SDS011;9308;48.550;9.108;2023-02-01T12:40:27;3.87;;;3.30;;
18360;SDS011;9308;48.550;9.108;2023-02-01T12:43:12;6.77;;;3.33;;
18360;SDS011;9308;48.550;9.108;2023-02-01T12:45:57;5.47;;;2.93;;
18360;SDS011;9308;48.550;9.108;2023-02-01T12:48:32;7.27;;;3.20;;
18360;SDS011;9308;48.550;9.108;2023-02-01T12:51:04;8.67;;;3.80;;
18360;SDS011;9308;48.550;9.108;2023-02-01T12:53:47;5.87;;;3.43;;
18360;SDS011;9308;48.550;9.108;2023-02-01T12:56:51;7.50;;;3.30;;
18360;SDS011;9308;48.550;9.108;2023-02-01T13:10:35;7.63;;;4.30;;
18360;SDS011;9308;48.550;9.108;2023-02-01T13:13:08;5.43;;;3.30;;
18360;SDS011;9308;48.550;9.108;2023-02-01T13:16:11;5.33;;;3.43;;
18360;SDS011;9308;48.550;9.108;2023-02-01T13:18:34;7.43;;;3.13;;
18360;SDS011;9308;48.550;9.108;2023-02-01T13:23:49;4.90;;;3.93;;
18360;SDS011;9308;48.550;9.108;2023-02-01T13:26:15;7.03;;;3.70;;
18360;SDS011;9308;48.550;9.108;2023-02-01T13:28:45;12.70;;;3.70;;
18360;SDS011;9308;48.550;9.108;2023-02-01T13:31:27;5.90;;;3.73;;
18360;SDS011;9308;48.550;9.108;2023-02-01T13:34:32;5.50;;;3.50;;
18360;SDS011;9308;48.550;9.108;2023-02-01T13:37:26;3.10;;;2.80;;
18360;SDS011;9308;48.550;9.108;2023-02-01T13:43:11;8.10;;;3.57;;
18360;SDS011;9308;48.550;9.108;2023-02-01T13:45:45;6.67;;;3.70;;
18360;SDS011;9308;48.550;9.108;2023-02-01T13:48:18;6.50;;;3.83;;
18360;SDS011;9308;48.550;9.108;2023-02-01T13:50:49;5.60;;;3.67;;
18360;SDS011;9308;48.550;9.108;2023-02-01T13:53:18;5.50;;;3.63;;
18360;SDS011;9308;48.550;9.108;2023-02-01T13:55:59;8.33;;;3.50;;
18360;SDS011;9308;48.550;9.108;2023-02-01T13:58:31;6.90;;;4.53;;
18360;SDS011;9308;48.550;9.108;2023-02-01T14:03:49;6.00;;;3.80;;
18360;SDS011;9308;48.550;9.108;2023-02-01T14:09:10;6.90;;;3.63;;
18360;SDS011;9308;48.550;9.108;2023-02-01T14:11:40;10.13;;;3.87;;
18360;SDS011;9308;48.550;9.108;2023-02-01T14:16:41;8.37;;;3.97;;
18360;SDS011;9308;48.550;9.108;2023-02-01T14:19:31;7.40;;;4.20;;
18360;SDS011;9308;48.550;9.108;2023-02-01T14:22:01;5.17;;;4.00;;
18360;SDS011;9308;48.550;9.108;2023-02-01T14:24:52;7.60;;;3.90;;
18360;SDS011;9308;48.550;9.108;2023-02-01T14:27:20;5.10;;;4.03;;
18360;SDS011;9308;48.550;9.108;2023-02-01T14:29:53;6.73;;;3.50;;
18360;SDS011;9308;48.550;9.108;2023-02-01T14:32:23;6.77;;;4.03;;
18360;SDS011;9308;48.550;9.108;2023-02-01T14:34:55;5.70;;;3.80;;
18360;SDS011;9308;48.550;9.108;2023-02-01T14:37:31;6.07;;;4.30;;
18360;SDS011;9308;48.550;9.108;2023-02-01T14:47:51;9.13;;;3.87;;
18360;SDS011;9308;48.550;9.108;2023-02-01T14:55:39;7.17;;;3.83;;
18360;SDS011;9308;48.550;9.108;2023-02-01T15:01:03;7.47;;;4.10;;
18360;SDS011;9308;48.550;9.108;2023-02-01T15:07:25;9.57;;;3.70;;
18360;SDS011;9308;48.550;9.108;2023-02-01T15:09:36;9.93;;;4.00;;
18360;SDS011;9308;48.550;9.108;2023-02-01T15:14:37;7.33;;;3.87;;
18360;SDS011;9308;48.550;9.108;2023-02-01T15:17:18;10.43;;;4.83;;
18360;SDS011;9308;48.550;9.108;2023-02-01T15:19:58;5.13;;;4.23;;
18360;SDS011;9308;48.550;9.108;2023-02-01T15:22:25;5.77;;;3.90;;
18360;SDS011;9308;48.550;9.108;2023-02-01T15:24:53;6.20;;;3.33;;
18360;SDS011;9308;48.550;9.108;2023-02-01T15:27:20;7.40;;;4.53;;
18360;SDS011;9308;48.550;9.108;2023-02-01T15:29:46;8.30;;;4.23;;
18360;SDS011;9308;48.550;9.108;2023-02-01T15:32:28;6.33;;;4.10;;
18360;SDS011;9308;48.550;9.108;2023-02-01T15:34:55;10.37;;;4.27;;
18360;SDS011;9308;48.550;9.108;2023-02-01T15:37:20;7.53;;;4.10;;
18360;SDS011;9308;48.550;9.108;2023-02-01T15:40:18;8.43;;;4.23;;
18360;SDS011;9308;48.550;9.108;2023-02-01T15:42:56;5.90;;;4.23;;
18360;SDS011;9308;48.550;9.108;2023-02-01T15:45:28;7.83;;;4.03;;
18360;SDS011;9308;48.550;9.108;2023-02-01T15:47:57;6.90;;;4.50;;
18360;SDS011;9308;48.550;9.108;2023-02-01T15:50:24;7.00;;;4.60;;
18360;SDS011;9308;48.550;9.108;2023-02-01T15:52:53;5.03;;;4.10;;
18360;SDS011;9308;48.550;9.108;2023-02-01T15:55:21;5.00;;;3.80;;
18360;SDS011;9308;48.550;9.108;2023-02-01T15:58:21;7.37;;;4.33;;
18360;SDS011;9308;48.550;9.108;2023-02-01T16:00:52;13.87;;;5.70;;
18360;SDS011;9308;48.550;9.108;2023-02-01T16:03:40;9.07;;;5.13;;
18360;SDS011;9308;48.550;9.108;2023-02-01T16:08:49;8.60;;;4.27;;
18360;SDS011;9308;48.550;9.108;2023-02-01T16:13:52;4.43;;;3.73;;
18360;SDS011;9308;48.550;9.108;2023-02-01T16:16:18;7.30;;;4.90;;
18360;SDS011;9308;48.550;9.108;2023-02-01T16:18:43;8.40;;;4.23;;
18360;SDS011;9308;48.550;9.108;2023-02-01T16:21:09;7.20;;;4.97;;
18360;SDS011;9308;48.550;9.108;2023-02-01T16:23:35;6.90;;;4.30;;
18360;SDS011;9308;48.550;9.108;2023-02-01T16:26:01;7.00;;;4.77;;
18360;SDS011;9308;48.550;9.108;2023-02-01T16:28:27;6.30;;;4.40;;
18360;SDS011;9308;48.550;9.108;2023-02-01T16:30:53;5.80;;;3.83;;
18360;SDS011;9308;48.550;9.108;2023-02-01T16:33:19;9.10;;;4.40;;
18360;SDS011;9308;48.550;9.108;2023-02-01T16:35:47;10.20;;;4.17;;
18360;SDS011;9308;48.550;9.108;2023-02-01T16:38:14;6.97;;;4.63;;
18360;SDS011;9308;48.550;9.108;2023-02-01T16:40:43;9.40;;;4.70;;
18360;SDS011;9308;48.550;9.108;2023-02-01T16:43:14;9.30;;;5.00;;
18360;SDS011;9308;48.550;9.108;2023-02-01T16:45:41;11.07;;;5.23;;
18360;SDS011;9308;48.550;9.108;2023-02-01T16:48:16;5.10;;;4.10;;
18360;SDS011;9308;48.550;9.108;2023-02-01T16:50:46;8.03;;;4.30;;
18360;SDS011;9308;48.550;9.108;2023-02-01T16:53:14;6.17;;;4.50;;
18360;SDS011;9308;48.550;9.108;2023-02-01T16:55:41;7.23;;;4.50;;
18360;SDS011;9308;48.550;9.108;2023-02-01T16:58:08;9.03;;;4.77;;
18360;SDS011;9308;48.550;9.108;2023-02-01T17:00:34;10.17;;;4.40;;
18360;SDS011;9308;48.550;9.108;2023-02-01T17:03:02;9.73;;;4.23;;
18360;SDS011;9308;48.550;9.108;2023-02-01T17:05:28;5.37;;;4.47;;
18360;SDS011;9308;48.550;9.108;2023-02-01T17:07:54;6.13;;;4.17;;
18360;SDS011;9308;48.550;9.108;2023-02-01T17:10:24;5.60;;;4.10;;
18360;SDS011;9308;48.550;9.108;2023-02-01T17:12:52;7.20;;;3.90;;
18360;SDS011;9308;48.550;9.108;2023-02-01T17:15:17;9.07;;;4.90;;
18360;SDS011;9308;48.550;9.108;2023-02-01T17:17:43;6.77;;;4.80;;
18360;SDS011;9308;48.550;9.108;2023-02-01T17:20:11;6.33;;;4.30;;
18360;SDS011;9308;48.550;9.108;2023-02-01T17:22:44;10.90;;;3.80;;
18360;SDS011;9308;48.550;9.108;2023-02-01T17:25:16;5.60;;;4.53;;
18360;SDS011;9308;48.550;9.108;2023-02-01T17:27:44;6.77;;;3.80;;
18360;SDS011;9308;48.550;9.108;2023-02-01T17:30:10;9.03;;;4.10;;
18360;SDS011;9308;48.550;9.108;2023-02-01T17:32:37;9.23;;;4.20;;
18360;SDS011;9308;48.550;9.108;2023-02-01T17:35:04;4.80;;;4.30;;
18360;SDS011;9308;48.550;9.108;2023-02-01T17:37:33;8.27;;;4.37;;
18360;SDS011;9308;48.550;9.108;2023-02-01T17:39:59;9.27;;;5.47;;